| time (UTC) | temp F | wind direction | speed knots | gust knots | rain 1hr in | rain 24hr in | rain mn in | humidity % | barometer mb |
| 20260507154136 | 55 | 258 | 4.3 | 4.3 | 0.00 | 0.00 | 0.00 | 43 | 1009.4 |
| 20260507153632 | 55 | 282 | 7.0 | 7.0 | 0.00 | 0.00 | 0.00 | 48 | 1009.4 |
| 20260507153129 | 55 | 294 | 4.3 | 5.2 | 0.00 | 0.00 | 0.00 | 46 | 1009.8 |
| 20260507152625 | 55 | 276 | 4.3 | 5.2 | 0.00 | 0.00 | 0.00 | 46 | 1009.8 |
| 20260507152121 | 55 | 300 | 6.1 | 7.0 | 0.00 | 0.00 | 0.00 | 46 | 1009.8 |
| 20260507151617 | 55 | 323 | 2.6 | 3.5 | 0.00 | 0.00 | 0.00 | 46 | 1009.8 |
| 20260507151115 | 55 | 312 | 5.2 | 5.2 | 0.00 | 0.00 | 0.00 | 46 | 1009.8 |
| 20260507150612 | 55 | 276 | 5.2 | 5.2 | 0.00 | 0.00 | 0.00 | 44 | 1009.8 |
| 20260507150108 | 54 | 324 | 3.5 | 3.5 | 0.00 | 0.00 | 0.00 | 47 | 1009.8 |
| 20260507145603 | 53 | 264 | 3.5 | 3.5 | 0.00 | 0.00 | 0.00 | 56 | 1009.8 |
| 20260507145102 | 53 | 270 | 3.5 | 4.3 | 0.00 | 0.00 | 0.00 | 64 | 1009.8 |
| 20260507144557 | 53 | 302 | 3.5 | 3.5 | 0.00 | 0.00 | 0.00 | 62 | 1009.8 |
| 20260507144056 | 55 | 306 | 5.2 | 5.2 | 0.00 | 0.00 | 0.00 | 59 | 1009.8 |
| 20260507143552 | 53 | 294 | 5.2 | 5.2 | 0.00 | 0.00 | 0.00 | 60 | 1009.8 |
| 20260507143050 | 52 | 302 | 4.3 | 4.3 | 0.00 | 0.00 | 0.00 | 65 | 1009.8 |
| 20260507142550 | 53 | 282 | 4.3 | 4.3 | 0.00 | 0.00 | 0.00 | 65 | 1009.8 |
| 20260507142047 | 53 | 276 | 3.5 | 3.5 | 0.00 | 0.00 | 0.00 | 65 | 1009.4 |
| 20260507141543 | 53 | 291 | 0.0 | 0.0 | 0.00 | 0.00 | 0.00 | 64 | 1009.4 |
| 20260507141040 | 53 | 300 | 2.6 | 2.6 | 0.00 | 0.00 | 0.00 | 65 | 1009.4 |
| 20260507140537 | 53 | 330 | 3.5 | 3.5 | 0.00 | 0.00 | 0.00 | 66 | 1009.8 |
| 20260507140034 | 53 | 285 | 3.5 | 3.5 | 0.00 | 0.00 | 0.00 | 65 | 1009.8 |
| 20260507135531 | 54 | 270 | 3.5 | 3.5 | 0.00 | 0.00 | 0.00 | 67 | 1009.8 |
| 20260507135028 | 53 | 270 | 2.6 | 2.6 | 0.00 | 0.00 | 0.00 | 68 | 1009.8 |
| 20260507134525 | 52 | 312 | 2.6 | 3.5 | 0.00 | 0.00 | 0.00 | 69 | 1009.8 |
| 20260507134020 | 52 | 294 | 3.5 | 3.5 | 0.00 | 0.00 | 0.00 | 68 | 1009.8 |
| 20260507133517 | 53 | 336 | 5.2 | 5.2 | 0.00 | 0.00 | 0.00 | 67 | 1009.8 |
| 20260507133015 | 53 | 301 | 4.3 | 5.2 | 0.00 | 0.00 | 0.00 | 66 | 1009.8 |
| 20260507132511 | 52 | 288 | 2.6 | 3.5 | 0.00 | 0.00 | 0.00 | 69 | 1009.8 |
| 20260507132008 | 53 | 312 | 3.5 | 3.5 | 0.00 | 0.00 | 0.00 | 66 | 1009.8 |
| 20260507131505 | 52 | 312 | 2.6 | 2.6 | 0.00 | 0.00 | 0.00 | 67 | 1009.8 |
| 20260507131002 | 52 | 288 | 4.3 | 5.2 | 0.00 | 0.00 | 0.00 | 68 | 1010.1 |
| 20260507130459 | 52 | 312 | 3.5 | 3.5 | 0.00 | 0.00 | 0.00 | 67 | 1009.8 |
| 20260507125957 | 51 | 301 | 2.6 | 3.5 | 0.00 | 0.00 | 0.00 | 69 | 1010.1 |
| 20260507125455 | 51 | 300 | 3.5 | 3.5 | 0.00 | 0.00 | 0.00 | 70 | 1009.8 |
| 20260507124952 | 51 | 294 | 3.5 | 3.5 | 0.00 | 0.00 | 0.00 | 70 | 1009.8 |
| 20260507124448 | 51 | 330 | 1.7 | 1.7 | 0.00 | 0.00 | 0.00 | 72 | 1009.8 |
| 20260507123946 | 51 | 312 | 3.5 | 3.5 | 0.00 | 0.00 | 0.00 | 72 | 1009.8 |
| 20260507123444 | 50 | 282 | 3.5 | 3.5 | 0.00 | 0.00 | 0.00 | 72 | 1009.8 |
| 20260507122940 | 50 | 306 | 1.7 | 1.7 | 0.00 | 0.00 | 0.00 | 74 | 1009.8 |
| 20260507122435 | 50 | 306 | 4.3 | 5.2 | 0.00 | 0.00 | 0.00 | 74 | 1009.8 |
| 20260507121932 | 50 | 329 | 2.6 | 2.6 | 0.00 | 0.00 | 0.00 | 76 | 1009.8 |
| 20260507121427 | 49 | 264 | 2.6 | 2.6 | 0.00 | 0.00 | 0.00 | 75 | 1009.8 |
| 20260507120924 | 49 | 342 | 3.5 | 3.5 | 0.00 | 0.00 | 0.00 | 77 | 1010.1 |
| 20260507120420 | 49 | 276 | 4.3 | 5.2 | 0.00 | 0.00 | 0.00 | 78 | 1010.1 |
| 20260507115917 | 48 | 294 | 3.5 | 3.5 | 0.00 | 0.00 | 0.00 | 79 | 1010.1 |
| 20260507115413 | 48 | 300 | 3.5 | 3.5 | 0.00 | 0.00 | 0.00 | 79 | 1009.8 |
| 20260507114909 | 48 | 294 | 1.7 | 1.7 | 0.00 | 0.00 | 0.00 | 80 | 1009.8 |
| 20260507114406 | 47 | 306 | 1.7 | 1.7 | 0.00 | 0.00 | 0.00 | 81 | 1009.8 |
| 20260507113903 | 47 | 276 | 5.2 | 5.2 | 0.00 | 0.00 | 0.00 | 82 | 1010.1 |
| 20260507113400 | 47 | 300 | 2.6 | 3.5 | 0.00 | 0.00 | 0.00 | 83 | 1009.8 |
| 20260507112857 | 47 | 300 | 2.6 | 2.6 | 0.00 | 0.00 | 0.00 | 83 | 1009.8 |
| 20260507112354 | 47 | 306 | 3.5 | 3.5 | 0.00 | 0.00 | 0.00 | 83 | 1009.8 |
| 20260507111852 | 47 | 348 | 3.5 | 3.5 | 0.00 | 0.00 | 0.00 | 84 | 1009.8 |
| 20260507111349 | 46 | 300 | 1.7 | 1.7 | 0.00 | 0.00 | 0.00 | 84 | 1009.8 |
| 20260507110845 | 46 | 300 | 2.6 | 2.6 | 0.00 | 0.00 | 0.00 | 84 | 1009.8 |
| 20260507110341 | 46 | 300 | 3.5 | 3.5 | 0.00 | 0.00 | 0.00 | 84 | 1009.8 |
| 20260507105838 | 46 | 294 | 1.7 | 1.7 | 0.00 | 0.00 | 0.00 | 84 | 1009.8 |
| 20260507105334 | 46 | 294 | 2.6 | 3.5 | 0.00 | 0.00 | 0.00 | 84 | 1009.4 |
| 20260507104831 | 46 | 294 | 3.5 | 4.3 | 0.00 | 0.00 | 0.00 | 84 | 1009.4 |
| 20260507104328 | 46 | 336 | 2.6 | 3.5 | 0.00 | 0.00 | 0.00 | 83 | 1009.1 |
| 20260507103824 | 47 | 306 | 2.6 | 2.6 | 0.00 | 0.00 | 0.00 | 83 | 1009.1 |
| 20260507103320 | 46 | 336 | 2.6 | 3.5 | 0.00 | 0.00 | 0.00 | 83 | 1009.4 |
| 20260507102817 | 46 | 312 | 2.6 | 3.5 | 0.00 | 0.00 | 0.00 | 84 | 1009.4 |
| 20260507102314 | 46 | 300 | 2.6 | 2.6 | 0.00 | 0.00 | 0.00 | 84 | 1009.4 |
| 20260507101810 | 46 | 300 | 2.6 | 2.6 | 0.00 | 0.00 | 0.00 | 84 | 1009.1 |
| 20260507101310 | 46 | 300 | 3.5 | 4.3 | 0.00 | 0.00 | 0.00 | 84 | 1009.4 |
| 20260507100808 | 46 | 300 | 3.5 | 4.3 | 0.00 | 0.00 | 0.00 | 84 | 1009.4 |
| 20260507100306 | 46 | 300 | 2.6 | 2.6 | 0.00 | 0.00 | 0.00 | 84 | 1009.1 |
| 20260507095804 | 46 | 324 | 1.7 | 1.7 | 0.00 | 0.00 | 0.00 | 85 | 1009.1 |
| 20260507095300 | 46 | 324 | 2.6 | 2.6 | 0.00 | 0.00 | 0.00 | 85 | 1009.4 |
| 20260507094757 | 46 | 342 | 3.5 | 3.5 | 0.00 | 0.00 | 0.00 | 85 | 1009.4 |
| 20260507094254 | 46 | 336 | 2.6 | 2.6 | 0.00 | 0.00 | 0.00 | 84 | 1009.4 |
| 20260507093751 | 46 | 306 | 3.5 | 3.5 | 0.00 | 0.00 | 0.00 | 85 | 1009.4 |
| 20260507093249 | 46 | 318 | 2.6 | 2.6 | 0.00 | 0.00 | 0.00 | 84 | 1009.4 |
| 20260507092747 | 46 | 312 | 3.5 | 3.5 | 0.00 | 0.00 | 0.00 | 85 | 1009.4 |
| 20260507092242 | 46 | 306 | 3.5 | 3.5 | 0.00 | 0.00 | 0.00 | 85 | 1009.4 |
| 20260507091739 | 47 | 312 | 4.3 | 5.2 | 0.00 | 0.00 | 0.00 | 85 | 1009.4 |
| 20260507091236 | 47 | 300 | 3.5 | 3.5 | 0.00 | 0.00 | 0.00 | 85 | 1009.4 |
| 20260507090731 | 47 | 300 | 4.3 | 4.3 | 0.00 | 0.00 | 0.00 | 85 | 1009.4 |
| 20260507090228 | 47 | 300 | 3.5 | 4.3 | 0.00 | 0.00 | 0.00 | 85 | 1009.8 |
| 20260507085725 | 47 | 300 | 2.6 | 3.5 | 0.00 | 0.00 | 0.00 | 85 | 1009.8 |
| 20260507085222 | 47 | 288 | 2.6 | 2.6 | 0.00 | 0.00 | 0.00 | 86 | 1009.8 |
| 20260507084719 | 47 | 288 | 2.6 | 2.6 | 0.00 | 0.00 | 0.00 | 86 | 1009.8 |
| 20260507084215 | 47 | 312 | 1.7 | 1.7 | 0.00 | 0.00 | 0.00 | 86 | 1009.1 |
| 20260507083713 | 47 | 300 | 2.6 | 2.6 | 0.00 | 0.00 | 0.00 | 86 | 1009.1 |
| 20260507083209 | 47 | 300 | 2.6 | 2.6 | 0.00 | 0.00 | 0.00 | 86 | 1009.4 |
| 20260507082705 | 47 | 264 | 3.5 | 3.5 | 0.00 | 0.00 | 0.00 | 87 | 1009.1 |
| 20260507082201 | 47 | 306 | 2.6 | 2.6 | 0.00 | 0.00 | 0.00 | 87 | 1009.1 |
| 20260507081658 | 47 | 300 | 2.6 | 2.6 | 0.00 | 0.00 | 0.00 | 87 | 1009.1 |
| 20260507081154 | 47 | 342 | 0.0 | 0.0 | 0.00 | 0.00 | 0.00 | 88 | 1009.1 |
| 20260507080651 | 47 | 306 | 1.7 | 1.7 | 0.00 | 0.00 | 0.00 | 89 | 1009.1 |
| 20260507080143 | 47 | 306 | 0.0 | 0.0 | 0.00 | 0.00 | 0.00 | 88 | 1008.8 |
| 20260507075642 | 47 | 342 | 1.7 | 1.7 | 0.00 | 0.00 | 0.00 | 88 | 1008.8 |
| 20260507075139 | 47 | 312 | 1.7 | 1.7 | 0.00 | 0.00 | 0.00 | 88 | 1009.1 |
| 20260507074636 | 48 | 312 | 1.7 | 1.7 | 0.00 | 0.00 | 0.00 | 88 | 1009.1 |
| 20260507074129 | 48 | 294 | 2.6 | 2.6 | 0.00 | 0.00 | 0.00 | 88 | 1009.4 |
| 20260507073625 | 48 | 276 | 2.6 | 2.6 | 0.00 | 0.00 | 0.00 | 88 | 1009.4 |
| 20260507073121 | 48 | 312 | 1.7 | 1.7 | 0.00 | 0.00 | 0.00 | 88 | 1009.1 |
| 20260507072619 | 48 | 306 | 2.6 | 2.6 | 0.00 | 0.00 | 0.00 | 88 | 1009.1 |
| 20260507072116 | 48 | 282 | 2.6 | 3.5 | 0.00 | 0.00 | 0.00 | 88 | 1009.1 |
| 20260507071613 | 48 | 300 | 2.6 | 2.6 | 0.00 | 0.00 | 0.00 | 88 | 1008.8 |
| 20260507071110 | 48 | 300 | 1.7 | 1.7 | 0.00 | 0.00 | 0.00 | 88 | 1008.8 |
| 20260507070607 | 48 | 300 | 2.6 | 2.6 | 0.00 | 0.00 | 0.00 | 88 | 1008.3 |
| 20260507070104 | 48 | 306 | 2.6 | 3.5 | 0.00 | 0.00 | 0.00 | 88 | 1008.3 |
| 20260507065600 | 48 | 294 | 2.6 | 2.6 | 0.00 | 0.00 | 0.00 | 88 | 1008.8 |
| 20260507065057 | 48 | 294 | 3.5 | 3.5 | 0.00 | 0.00 | 0.00 | 88 | 1008.3 |
| 20260507064555 | 49 | 306 | 1.7 | 1.7 | 0.00 | 0.00 | 0.00 | 87 | 1008.3 |
| 20260507064054 | 49 | 270 | 4.3 | 4.3 | 0.00 | 0.00 | 0.00 | 87 | 1008.3 |
| 20260507063550 | 49 | 336 | 2.6 | 2.6 | 0.00 | 0.00 | 0.00 | 87 | 1009.1 |
| 20260507063048 | 49 | 312 | 2.6 | 2.6 | 0.00 | 0.00 | 0.00 | 87 | 1008.3 |
| 20260507062544 | 49 | 306 | 3.5 | 3.5 | 0.00 | 0.00 | 0.00 | 87 | 1008.0 |
| 20260507062042 | 49 | 300 | 4.3 | 5.2 | 0.00 | 0.00 | 0.00 | 87 | 1008.3 |
| 20260507061539 | 49 | 324 | 3.5 | 3.5 | 0.00 | 0.00 | 0.00 | 87 | 1008.3 |
| 20260507061037 | 49 | 300 | 3.5 | 4.3 | 0.00 | 0.00 | 0.00 | 88 | 1008.8 |
| 20260507060535 | 49 | 276 | 3.5 | 3.5 | 0.00 | 0.00 | 0.00 | 89 | 1008.8 |
| 20260507060031 | 49 | 282 | 3.5 | 3.5 | 0.00 | 0.00 | 0.00 | 89 | 1008.3 |
| 20260507055526 | 49 | 270 | 1.7 | 1.7 | 0.00 | 0.00 | 0.00 | 89 | 1008.3 |
| 20260507055022 | 49 | 294 | 1.7 | 1.7 | 0.00 | 0.00 | 0.00 | 89 | 1009.1 |
| 20260507054518 | 49 | 282 | 1.7 | 1.7 | 0.00 | 0.00 | 0.00 | 89 | 1009.1 |
| 20260507054015 | 49 | 282 | 2.6 | 2.6 | 0.00 | 0.00 | 0.00 | 89 | 1008.8 |
| 20260507053514 | 49 | 288 | 1.7 | 1.7 | 0.00 | 0.00 | 0.00 | 89 | 1008.8 |
| 20260507053012 | 49 | 282 | 1.7 | 1.7 | 0.00 | 0.00 | 0.00 | 89 | 1008.8 |
| 20260507052509 | 49 | 294 | 1.7 | 1.7 | 0.00 | 0.00 | 0.00 | 89 | 1009.1 |
| 20260507052006 | 49 | 300 | 2.6 | 2.6 | 0.00 | 0.00 | 0.00 | 89 | 1009.1 |
| 20260507051504 | 49 | 294 | 2.6 | 2.6 | 0.00 | 0.00 | 0.00 | 89 | 1009.1 |
| 20260507051000 | 49 | 306 | 2.6 | 3.5 | 0.00 | 0.00 | 0.00 | 90 | 1008.8 |
| 20260507050456 | 49 | 294 | 1.7 | 1.7 | 0.00 | 0.00 | 0.00 | 90 | 1009.1 |
| 20260507045953 | 49 | 300 | 2.6 | 2.6 | 0.00 | 0.00 | 0.00 | 90 | 1008.8 |
| 20260507045450 | 49 | 306 | 2.6 | 2.6 | 0.00 | 0.00 | 0.00 | 89 | 1008.8 |
| 20260507044948 | 49 | 312 | 1.7 | 1.7 | 0.00 | 0.00 | 0.00 | 89 | 1009.1 |
| 20260507044444 | 50 | 312 | 1.7 | 1.7 | 0.00 | 0.00 | 0.00 | 89 | 1009.1 |
| 20260507043940 | 50 | 318 | 0.9 | 0.9 | 0.00 | 0.00 | 0.00 | 89 | 1008.8 |
| 20260507043436 | 50 | 18 | 0.0 | 0.0 | 0.00 | 0.00 | 0.00 | 89 | 1008.8 |
| 20260507042933 | 50 | 318 | 0.0 | 0.0 | 0.00 | 0.00 | 0.00 | 90 | 1009.1 |
| 20260507042430 | 50 | 336 | 2.6 | 2.6 | 0.00 | 0.00 | 0.00 | 90 | 1009.1 |
| 20260507041925 | 51 | 312 | 1.7 | 1.7 | 0.00 | 0.00 | 0.00 | 90 | 1009.1 |
| 20260507041422 | 51 | 342 | 3.5 | 3.5 | 0.00 | 0.00 | 0.00 | 90 | 1009.1 |
| 20260507040920 | 51 | 318 | 1.7 | 1.7 | 0.00 | 0.00 | 0.00 | 90 | 1009.1 |
| 20260507040415 | 51 | 300 | 1.7 | 1.7 | 0.00 | 0.00 | 0.00 | 90 | 1008.8 |
| 20260507035911 | 51 | 312 | 1.7 | 1.7 | 0.01 | 0.17 | 0.17 | 90 | 1008.8 |
| 20260507035408 | 51 | 306 | 1.7 | 1.7 | 0.01 | 0.17 | 0.17 | 89 | 1008.8 |
| 20260507034905 | 52 | 330 | 1.7 | 1.7 | 0.01 | 0.17 | 0.17 | 90 | 1008.8 |
| 20260507034401 | 52 | 312 | 1.7 | 1.7 | 0.01 | 0.17 | 0.17 | 91 | 1008.3 |
| 20260507033859 | 52 | 294 | 2.6 | 2.6 | 0.01 | 0.17 | 0.17 | 91 | 1008.8 |
| 20260507033358 | 52 | 294 | 2.6 | 3.5 | 0.01 | 0.17 | 0.17 | 92 | 1008.8 |
| 20260507032854 | 53 | 300 | 2.6 | 2.6 | 0.01 | 0.17 | 0.17 | 91 | 1008.3 |
| 20260507032351 | 53 | 296 | 2.6 | 2.6 | 0.01 | 0.17 | 0.17 | 91 | 1008.3 |
| 20260507031847 | 53 | 300 | 3.5 | 3.5 | 0.01 | 0.17 | 0.17 | 91 | 1008.3 |
| 20260507031344 | 53 | 306 | 3.5 | 3.5 | 0.01 | 0.17 | 0.17 | 91 | 1008.0 |
| 20260507030840 | 53 | 312 | 2.6 | 2.6 | 0.01 | 0.17 | 0.17 | 91 | 1007.6 |
| 20260507030338 | 54 | 300 | 4.3 | 5.2 | 0.01 | 0.17 | 0.17 | 91 | 1008.0 |
| 20260507025834 | 54 | 306 | 5.2 | 5.2 | 0.01 | 0.15 | 0.15 | 90 | 1008.0 |
| 20260507025332 | 55 | 312 | 2.6 | 2.6 | 0.01 | 0.15 | 0.15 | 91 | 1008.0 |
| 20260507024830 | 55 | 342 | 3.5 | 4.3 | 0.01 | 0.15 | 0.15 | 91 | 1008.3 |
| 20260507024327 | 56 | 306 | 2.6 | 2.6 | 0.00 | 0.14 | 0.14 | 91 | 1008.0 |
| 20260507023822 | 56 | 294 | 5.2 | 5.2 | 0.00 | 0.14 | 0.14 | 91 | 1008.0 |
| 20260507023319 | 56 | 294 | 2.6 | 2.6 | 0.00 | 0.14 | 0.14 | 90 | 1008.0 |
| 20260507022817 | 56 | 306 | 3.5 | 3.5 | 0.00 | 0.14 | 0.14 | 91 | 1008.0 |
| 20260507022313 | 57 | 300 | 3.5 | 3.5 | 0.00 | 0.14 | 0.14 | 91 | 1007.6 |
| 20260507021809 | 57 | 300 | 1.7 | 1.7 | 0.00 | 0.14 | 0.14 | 92 | 1007.6 |
| 20260507021305 | 57 | 312 | 2.6 | 2.6 | 0.00 | 0.14 | 0.14 | 94 | 1007.6 |
| 20260507020803 | 58 | 318 | 0.0 | 0.0 | 0.00 | 0.14 | 0.14 | 95 | 1007.6 |
| 20260507020259 | 58 | 346 | 0.0 | 0.0 | 0.00 | 0.14 | 0.14 | 95 | 1007.6 |
| 20260507015757 | 58 | 346 | 0.0 | 0.0 | 0.00 | 0.14 | 0.14 | 95 | 1007.3 |
| 20260507015254 | 58 | 346 | 0.0 | 0.0 | 0.00 | 0.14 | 0.14 | 95 | 1007.3 |
| 20260507014751 | 58 | 346 | 0.0 | 0.0 | 0.00 | 0.14 | 0.14 | 95 | 1007.3 |
| 20260507014247 | 58 | 346 | 0.0 | 0.0 | 0.00 | 0.14 | 0.14 | 95 | 1007.3 |
| 20260507013744 | 58 | 346 | 0.0 | 0.0 | 0.00 | 0.14 | 0.14 | 95 | 1007.0 |
| 20260507013241 | 58 | 346 | 0.0 | 0.0 | 0.00 | 0.14 | 0.14 | 95 | 1007.3 |
| 20260507012738 | 58 | 346 | 0.0 | 0.0 | 0.00 | 0.14 | 0.14 | 95 | 1007.3 |
| 20260507012233 | 58 | 346 | 0.0 | 0.0 | 0.00 | 0.14 | 0.14 | 95 | 1007.0 |
| 20260507011731 | 58 | 346 | 1.7 | 1.7 | 0.00 | 0.14 | 0.14 | 95 | 1007.3 |
| 20260507011228 | 58 | 348 | 0.0 | 0.0 | 0.00 | 0.14 | 0.14 | 95 | 1007.3 |
| 20260507010722 | 58 | 348 | 0.0 | 0.0 | 0.00 | 0.14 | 0.14 | 95 | 1007.3 |
| 20260507010218 | 58 | 0 | 0.0 | 0.0 | 0.00 | 0.14 | 0.14 | 95 | 1007.3 |
| 20260507005716 | 58 | 0 | 0.0 | 0.0 | 0.00 | 0.14 | 0.14 | 95 | 1007.3 |
| 20260507005212 | 58 | 0 | 0.0 | 0.0 | 0.00 | 0.14 | 0.14 | 95 | 1007.3 |
| 20260507004709 | 58 | 354 | 0.0 | 0.0 | 0.00 | 0.14 | 0.14 | 95 | 1007.3 |
| 20260507004206 | 58 | 354 | 0.0 | 0.0 | 0.00 | 0.14 | 0.14 | 95 | 1007.3 |
| 20260507003702 | 58 | 354 | 0.0 | 0.0 | 0.00 | 0.14 | 0.14 | 95 | 1007.0 |
| 20260507003158 | 58 | 354 | 0.0 | 0.0 | 0.00 | 0.14 | 0.14 | 95 | 1006.6 |
| 20260507002654 | 58 | 354 | 0.0 | 0.0 | 0.00 | 0.14 | 0.14 | 95 | 1006.6 |
| 20260507002150 | 58 | 0 | 0.0 | 0.0 | 0.00 | 0.14 | 0.14 | 95 | 1007.0 |
| 20260507001647 | 58 | 0 | 0.0 | 0.0 | 0.00 | 0.14 | 0.14 | 95 | 1007.0 |
| 20260507001144 | 58 | 336 | 0.0 | 0.0 | 0.00 | 0.14 | 0.14 | 95 | 1007.0 |
| 20260507000641 | 58 | 336 | 0.0 | 0.0 | 0.00 | 0.14 | 0.14 | 95 | 1007.0 |
| 20260507000136 | 58 | 6 | 0.0 | 0.0 | 0.00 | 0.14 | 0.14 | 95 | 1006.6 |
| 20260506235634 | 58 | 6 | 0.0 | 0.0 | 0.00 | 0.14 | 0.14 | 95 | 1007.0 |
| 20260506235133 | 58 | 6 | 0.0 | 0.0 | 0.00 | 0.14 | 0.14 | 95 | 1006.6 |
| 20260506234631 | 58 | 18 | 0.0 | 0.0 | 0.00 | 0.14 | 0.14 | 95 | 1006.6 |
| 20260506234128 | 58 | 0 | 0.0 | 0.0 | 0.00 | 0.14 | 0.14 | 95 | 1007.0 |
| 20260506233625 | 58 | 36 | 0.0 | 0.0 | 0.00 | 0.14 | 0.14 | 94 | 1006.3 |
| 20260506233122 | 58 | 36 | 0.0 | 0.0 | 0.00 | 0.14 | 0.14 | 94 | 1006.6 |
| 20260506232618 | 58 | 264 | 0.0 | 0.0 | 0.00 | 0.14 | 0.14 | 94 | 1006.6 |
| 20260506232114 | 58 | 264 | 0.0 | 0.0 | 0.00 | 0.14 | 0.14 | 94 | 1006.6 |
| 20260506231611 | 58 | 162 | 0.0 | 0.0 | 0.00 | 0.14 | 0.14 | 94 | 1007.0 |
| 20260506231109 | 58 | 126 | 0.0 | 0.0 | 0.00 | 0.14 | 0.14 | 94 | 1006.6 |
| 20260506230606 | 58 | 174 | 0.0 | 0.0 | 0.00 | 0.14 | 0.14 | 94 | 1007.0 |
| 20260506230103 | 58 | 180 | 0.0 | 0.0 | 0.00 | 0.14 | 0.14 | 94 | 1007.0 |
| 20260506225559 | 58 | 198 | 0.0 | 0.0 | 0.00 | 0.14 | 0.14 | 94 | 1007.0 |
| 20260506225056 | 58 | 198 | 0.0 | 0.0 | 0.00 | 0.14 | 0.14 | 94 | 1007.0 |
| 20260506224553 | 58 | 198 | 0.0 | 0.0 | 0.00 | 0.14 | 0.14 | 94 | 1007.0 |
| 20260506224049 | 58 | 198 | 1.7 | 1.7 | 0.00 | 0.14 | 0.14 | 94 | 1007.0 |
| 20260506223545 | 58 | 198 | 0.0 | 0.0 | 0.00 | 0.14 | 0.14 | 94 | 1007.0 |
| 20260506223042 | 58 | 6 | 0.0 | 0.0 | 0.00 | 0.14 | 0.14 | 94 | 1007.0 |
| 20260506222539 | 59 | 6 | 0.0 | 0.0 | 0.00 | 0.14 | 0.14 | 94 | 1007.0 |
| 20260506222035 | 59 | 12 | 1.7 | 1.7 | 0.00 | 0.14 | 0.14 | 94 | 1007.3 |
| 20260506221533 | 59 | 12 | 0.0 | 0.0 | 0.00 | 0.14 | 0.14 | 94 | 1007.0 |
| 20260506221031 | 59 | 12 | 0.0 | 0.0 | 0.00 | 0.14 | 0.14 | 94 | 1007.3 |
| 20260506220526 | 59 | 14 | 0.0 | 0.0 | 0.00 | 0.14 | 0.14 | 94 | 1007.0 |
| 20260506220022 | 59 | 14 | 0.0 | 0.0 | 0.00 | 0.14 | 0.14 | 94 | 1007.3 |
| 20260506215519 | 59 | 14 | 0.0 | 0.0 | 0.01 | 0.14 | 0.14 | 94 | 1007.0 |
| 20260506215015 | 59 | 14 | 0.0 | 0.0 | 0.01 | 0.14 | 0.14 | 94 | 1007.3 |
| 20260506214512 | 59 | 18 | 0.0 | 0.0 | 0.01 | 0.14 | 0.14 | 94 | 1007.0 |
| 20260506214009 | 59 | 6 | 0.0 | 0.0 | 0.01 | 0.14 | 0.14 | 94 | 1007.3 |
| 20260506213507 | 59 | 6 | 0.0 | 0.0 | 0.01 | 0.14 | 0.14 | 94 | 1007.0 |
| 20260506213004 | 59 | 297 | 0.0 | 0.0 | 0.01 | 0.14 | 0.14 | 94 | 1007.0 |
| 20260506212500 | 59 | 48 | 0.0 | 0.0 | 0.00 | 0.12 | 0.12 | 94 | 1007.0 |
| 20260506211955 | 59 | 48 | 0.0 | 0.0 | 0.00 | 0.12 | 0.12 | 94 | 1007.0 |
| 20260506211451 | 59 | 324 | 0.0 | 0.0 | 0.00 | 0.12 | 0.12 | 94 | 1007.3 |
| 20260506210949 | 59 | 342 | 0.0 | 0.0 | 0.00 | 0.12 | 0.12 | 94 | 1007.3 |
| 20260506210445 | 59 | 328 | 0.0 | 0.0 | 0.00 | 0.12 | 0.12 | 94 | 1007.3 |
| 20260506205942 | 59 | 324 | 1.7 | 1.7 | 0.03 | 0.12 | 0.12 | 94 | 1007.3 |
| 20260506205438 | 60 | 48 | 0.0 | 0.0 | 0.01 | 0.11 | 0.11 | 94 | 1007.3 |
| 20260506204934 | 60 | 264 | 0.0 | 0.0 | 0.01 | 0.11 | 0.11 | 93 | 1007.3 |
| 20260506204432 | 60 | 262 | 0.9 | 0.9 | 0.01 | 0.11 | 0.11 | 93 | 1007.6 |
| 20260506203930 | 60 | 294 | 0.0 | 0.0 | 0.01 | 0.11 | 0.11 | 93 | 1007.3 |
| 20260506203427 | 60 | 252 | 0.0 | 0.0 | 0.01 | 0.11 | 0.11 | 93 | 1007.6 |
| 20260506202924 | 60 | 354 | 0.0 | 0.0 | 0.01 | 0.11 | 0.11 | 93 | 1007.6 |
| 20260506202421 | 60 | 6 | 0.0 | 0.0 | 0.01 | 0.11 | 0.11 | 93 | 1007.3 |
| 20260506201917 | 60 | 352 | 0.0 | 0.0 | 0.00 | 0.09 | 0.09 | 93 | 1007.6 |
| 20260506201415 | 60 | 352 | 0.0 | 0.0 | 0.00 | 0.09 | 0.09 | 93 | 1007.6 |
| 20260506200911 | 61 | 312 | 0.9 | 0.9 | 0.00 | 0.09 | 0.09 | 93 | 1007.6 |
| 20260506200407 | 60 | 318 | 0.0 | 0.0 | 0.00 | 0.09 | 0.09 | 92 | 1007.6 |
| 20260506195904 | 60 | 6 | 0.0 | 0.0 | 0.01 | 0.09 | 0.09 | 92 | 1008.0 |
| 20260506195401 | 60 | 186 | 0.0 | 0.0 | 0.01 | 0.09 | 0.09 | 92 | 1008.0 |
| 20260506194858 | 61 | 108 | 0.0 | 0.0 | 0.01 | 0.09 | 0.09 | 92 | 1008.0 |
| 20260506194355 | 60 | 306 | 0.0 | 0.0 | 0.00 | 0.07 | 0.07 | 92 | 1008.0 |
| 20260506193852 | 61 | 282 | 1.7 | 1.7 | 0.00 | 0.07 | 0.07 | 92 | 1008.0 |
| 20260506193349 | 61 | 300 | 2.6 | 2.6 | 0.00 | 0.07 | 0.07 | 92 | 1008.0 |
| 20260506192845 | 61 | 228 | 0.0 | 0.0 | 0.00 | 0.07 | 0.07 | 92 | 1008.0 |
| 20260506192342 | 61 | 234 | 0.0 | 0.0 | 0.00 | 0.07 | 0.07 | 92 | 1008.0 |
| 20260506191839 | 61 | 312 | 1.7 | 1.7 | 0.00 | 0.07 | 0.07 | 92 | 1008.0 |
| 20260506191335 | 61 | 306 | 0.0 | 0.0 | 0.00 | 0.07 | 0.07 | 92 | 1007.6 |
| 20260506190832 | 61 | 306 | 0.0 | 0.0 | 0.00 | 0.07 | 0.07 | 92 | 1007.6 |
| 20260506190328 | 61 | 306 | 0.0 | 0.0 | 0.00 | 0.07 | 0.07 | 92 | 1007.6 |
| 20260506185826 | 61 | 48 | 0.0 | 0.0 | 0.04 | 0.07 | 0.07 | 92 | 1008.0 |
| 20260506185322 | 61 | 48 | 0.0 | 0.0 | 0.04 | 0.07 | 0.07 | 92 | 1008.0 |
| 20260506184820 | 61 | 264 | 0.0 | 0.0 | 0.04 | 0.07 | 0.07 | 92 | 1008.0 |
| 20260506184317 | 60 | 264 | 0.0 | 0.0 | 0.04 | 0.07 | 0.07 | 92 | 1008.3 |
| 20260506183814 | 60 | 264 | 0.0 | 0.0 | 0.03 | 0.06 | 0.06 | 91 | 1008.3 |
| 20260506183309 | 60 | 264 | 1.7 | 1.7 | 0.03 | 0.06 | 0.06 | 91 | 1008.3 |
| 20260506182806 | 61 | 264 | 0.0 | 0.0 | 0.03 | 0.06 | 0.06 | 91 | 1008.8 |
| 20260506182306 | 61 | 264 | 0.0 | 0.0 | 0.01 | 0.04 | 0.04 | 90 | 1008.8 |
| 20260506181801 | 61 | 264 | 0.0 | 0.0 | 0.01 | 0.04 | 0.04 | 89 | 1008.3 |
| 20260506181259 | 61 | 264 | 1.7 | 1.7 | 0.01 | 0.04 | 0.04 | 89 | 1008.8 |
| 20260506180756 | 61 | 264 | 2.6 | 2.6 | 0.00 | 0.03 | 0.03 | 88 | 1008.8 |
| 20260506180252 | 61 | 270 | 1.7 | 1.7 | 0.00 | 0.03 | 0.03 | 87 | 1009.1 |
| 20260506175748 | 62 | 276 | 1.7 | 1.7 | 0.01 | 0.01 | 0.01 | 86 | 1008.8 |
| 20260506175245 | 62 | 282 | 2.6 | 2.6 | 0.01 | 0.01 | 0.01 | 85 | 1009.1 |
| 20260506174743 | 63 | 276 | 2.6 | 2.6 | 0.00 | 0.00 | 0.00 | 82 | 1009.1 |
| 20260506174239 | 64 | 270 | 3.5 | 3.5 | 0.00 | 0.00 | 0.00 | 78 | 1009.1 |
| 20260506173737 | 65 | 270 | 2.6 | 2.6 | 0.00 | 0.00 | 0.00 | 74 | 1009.1 |
| 20260506173234 | 66 | 276 | 2.6 | 3.5 | 0.00 | 0.00 | 0.00 | 72 | 1009.1 |
| 20260506172731 | 67 | 282 | 3.5 | 3.5 | 0.00 | 0.00 | 0.00 | 70 | 1008.8 |
| 20260506172227 | 67 | 282 | 3.5 | 4.3 | 0.00 | 0.00 | 0.00 | 66 | 1008.8 |
| 20260506171725 | 68 | 270 | 1.7 | 1.7 | 0.00 | 0.00 | 0.00 | 65 | 1008.3 |
| 20260506171222 | 69 | 246 | 4.3 | 5.2 | 0.00 | 0.00 | 0.00 | 64 | 1008.8 |
| 20260506170719 | 69 | 282 | 3.5 | 3.5 | 0.00 | 0.00 | 0.00 | 63 | 1008.3 |
| 20260506170216 | 69 | 278 | 4.3 | 4.3 | 0.00 | 0.00 | 0.00 | 62 | 1008.3 |
| 20260506165714 | 69 | 290 | 3.5 | 3.5 | 0.00 | 0.00 | 0.00 | 63 | 1008.8 |
| 20260506165211 | 69 | 234 | 1.7 | 1.7 | 0.00 | 0.00 | 0.00 | 64 | 1008.8 |
| 20260506164708 | 69 | 264 | 2.6 | 3.5 | 0.00 | 0.00 | 0.00 | 65 | 1009.1 |
| 20260506164205 | 69 | 348 | 3.5 | 3.5 | 0.00 | 0.00 | 0.00 | 66 | 1008.8 |
| 20260506163701 | 69 | 306 | 0.0 | 0.0 | 0.00 | 0.00 | 0.00 | 66 | 1009.1 |
| 20260506163157 | 69 | 270 | 0.9 | 0.9 | 0.00 | 0.00 | 0.00 | 66 | 1009.1 |
| 20260506162653 | 68 | 346 | 1.7 | 1.7 | 0.00 | 0.00 | 0.00 | 68 | 1009.1 |
| 20260506162150 | 68 | 324 | 1.7 | 1.7 | 0.00 | 0.00 | 0.00 | 68 | 1009.1 |
| 20260506161647 | 69 | 341 | 0.0 | 0.0 | 0.00 | 0.00 | 0.00 | 68 | 1009.1 |
| 20260506161144 | 69 | 324 | 2.6 | 2.6 | 0.00 | 0.00 | 0.00 | 67 | 1009.1 |
| 20260506160642 | 69 | 0 | 0.0 | 0.0 | 0.00 | 0.00 | 0.00 | 67 | 1009.1 |
| 20260506160139 | 70 | 0 | 1.7 | 1.7 | 0.00 | 0.00 | 0.00 | 65 | 1009.4 |
| 20260506155637 | 69 | 15 | 0.0 | 0.0 | 0.00 | 0.00 | 0.00 | 68 | 1009.4 |
| 20260506155134 | 68 | 342 | 0.0 | 0.0 | 0.00 | 0.00 | 0.00 | 70 | 1009.8 |